Pagrindinis puslapis
METAR-TAF:

METAR-TAF

Oro uostai :

Ronebis, Švedija

platuma: 56-16N, ilguma: 015-17E, Aukštis: 58 m

Dabartinis oras

Ataskaita buvo paskelbta 30 minutes, ne 06:20 UTC
Vėjas 3 kt iš Šiaurės/Šiaurės Rytų
Temperatūra 3°C
Drėgmė 87%
Slėgis 1025 hPa
Matomumas 10 km arba daugiau
nėra debesų žemiau 1500 m ir nėra kamuolinių lietaus debesų

METAR: ESDF 100620Z 02003KT CAVOK 03/01 Q1025

Laikas: 08:50 (06:50 UTC)

Prognozė

Ataskaita buvo paskelbta 20 minutes, ne 06:30 UTC
Prognozė galioja nuo 10 metu 07 UTC su 10 metu 15 UTC
Vėjas 2 kt nuo kintamojo kryptimis
Matomumas 10 km arba daugiau
nėra debesų žemiau 1500 m ir nėra kamuolinių lietaus debesų

TAF: ESDF 100630Z 1007/1015 VRB02KT CAVOK

Orai ataskaitas ir orų prognozės (METAR, TAF).

turimą stotys yra geltonos ir raudonos taškus žemėlapyje.

Perkelti pele per norėdami pamatyti stoties vardą.

Tada spustelėkite, norėdami matyti oro stebėjimo ir prognozės.

Norėdami pakeisti žemėlapį: spustelėkite ant žalios mygtukų su juodo kryžiaus žemyn,; žalią mygtuką su brūkšneliu, jei norite nutolinti; arba žalių rodyklių gretimoms žemėlapius.


METAR-TAF: